DABB/AAE METAR and TAF weather

Enter ICAO airport designator
Station Type Date Time Source
DABB METAR 2018/09/20 18:00 UTC NOAA

DABB 201800Z 29003KT 9999 TS FEW023TCU FEW026CB SCT200 24/20 Q1015


Station Type Date Time Source
DABB Decoded METAR 2018/09/20 18:00 UTC NOAA

Annaba, Algeria (DABB) 36-50N 007-49E 4M
Sep 20, 2018 - 02:00 PM EDT / 2018.09.20 1800 UTC
Wind: from the WNW (290 degrees) at 3 MPH (3 KT):0
Visibility: greater than 7 mile(s):0
Sky conditions: partly cloudy
Weather: thunder; Cumulonimbus clouds, towering cumulus clouds observed
Temperature: 75 F (24 C)
Dew Point: 68 F (20 C)
Relative Humidity: 78%
Pressure (altimeter): 29.97 in. Hg (1015 hPa)
ob: DABB 201800Z 29003KT 9999 TS FEW023TCU FEW026CB SCT200 24/20 Q1015
cycle: 18

Station Type Date Time Source
DABB TAF 2018/09/20 18:33 UTC NOAA

TAF DABB 201700Z 2018/2118 34012KT 9999 FEW026TCU SCT033
TEMPO 2018/2024 3000 TSRA SCT023CB
TEMPO 2100/2108 2000 -RA BR BKN008


Example: see airport list